Terminal Aerodrome Forecast
Issued by NWS Missoula, MT

Home | Current Version | Previous Version | Text Only | Print | Product List | Glossary On
Versions: 1 2 3 4 5 6 7 8 9 10 11 12 13 14 15 16 17
258
FTUS45 KMSO 102337
TAFMSO
TAF
KMSO 102337Z 1100/1124 VRB03KT P6SM VCSH SCT050
     FM110900 12005KT 4SM -SN BR BKN030 OVC050
     FM111800 12008KT P6SM VCSH SCT030 OVC050=

USA.gov is the U.S. government's official web portal to all federal, state and local government web resources and services.